Time;durP1;ratioP1;P1;durP2;ratioP2;P2;SDS_P1;SDS_P2;PMS_P1;PMS_P2;Temp;Humidity;BMP_temperature;BMP_pressure;BME280_temperature;BME280_humidity;BME280_pressure;Samples;Min_cycle;Max_cycle;Signal;HPM_P1;HPM_P2
2020/12/21 00:00:49;;;;;;;50.15;20.92;;;7.90;99.90;;;;;;5053344;28;20098;-60
2020/12/21 00:03:35;;;;;;;56.53;23.00;;;8.00;99.90;;;;;;5053405;28;20037;-59
2020/12/21 00:06:21;;;;;;;56.92;23.15;;;8.00;99.90;;;;;;5051812;28;20076;-60
2020/12/21 00:09:08;;;;;;;56.53;23.27;;;7.80;99.90;;;;;;5053077;28;20033;-60
2020/12/21 00:11:54;;;;;;;55.80;22.52;;;7.80;99.90;;;;;;5053895;28;20049;-59
2020/12/21 00:14:40;;;;;;;57.85;23.63;;;7.70;99.90;;;;;;5053406;28;20045;-58
2020/12/21 00:17:26;;;;;;;48.75;22.92;;;7.60;99.90;;;;;;5052808;28;20033;-59
2020/12/21 00:20:12;;;;;;;55.17;23.52;;;7.70;99.90;;;;;;5053615;28;20045;-59
2020/12/21 00:22:58;;;;;;;52.50;21.13;;;7.60;99.90;;;;;;5038883;28;20041;-60
2020/12/21 00:25:44;;;;;;;55.05;23.42;;;7.70;99.90;;;;;;5053036;28;20397;-60
2020/12/21 00:28:30;;;;;;;54.38;21.83;;;7.70;99.90;;;;;;5053553;28;20036;-59
2020/12/21 00:31:31;;;;;;;50.30;22.05;;;7.60;99.90;;;;;;5054209;28;20134;-59
2020/12/21 00:34:18;;;;;;;;;;;7.60;99.90;;;;;;5053468;28;20041;-58
2020/12/21 00:37:06;;;;;;;48.58;21.05;;;7.70;99.90;;;;;;5052849;28;19908;-60
2020/12/21 00:39:52;;;;;;;52.30;21.15;;;7.60;99.90;;;;;;5054132;28;20049;-59
2020/12/21 00:42:38;;;;;;;50.60;22.27;;;7.70;99.90;;;;;;5053908;28;20025;-59
2020/12/21 00:45:24;;;;;;;59.10;23.17;;;7.60;99.90;;;;;;5052770;28;20043;-59
2020/12/21 00:48:10;;;;;;;54.63;21.98;;;7.50;99.90;;;;;;5037936;28;20247;-59
2020/12/21 00:50:57;;;;;;;48.63;21.65;;;7.60;99.90;;;;;;5038244;28;20025;-59
2020/12/21 00:53:44;;;;;;;52.60;23.13;;;7.50;99.90;;;;;;5052224;28;20087;-59
2020/12/21 00:56:31;;;;;;;55.72;24.10;;;7.60;99.90;;;;;;5052464;28;20278;-59
2020/12/21 00:59:17;;;;;;;63.53;25.08;;;7.50;99.90;;;;;;5038799;28;20045;-59
2020/12/21 01:02:06;;;;;;;58.28;23.83;;;7.50;99.90;;;;;;5051855;28;20094;-60
2020/12/21 01:04:52;;;;;;;58.97;25.20;;;7.40;99.90;;;;;;5051139;28;20036;-60
2020/12/21 01:07:38;;;;;;;59.90;23.55;;;7.40;99.90;;;;;;5052808;28;20429;-59
2020/12/21 01:10:24;;;;;;;59.90;23.25;;;7.30;99.90;;;;;;5052138;28;20106;-59
2020/12/21 01:13:10;;;;;;;56.78;22.98;;;7.30;99.90;;;;;;5052659;28;20505;-59
2020/12/21 01:15:56;;;;;;;60.35;23.95;;;7.30;99.90;;;;;;5051859;28;20122;-59
2020/12/21 01:18:42;;;;;;;53.70;22.15;;;7.30;99.90;;;;;;5053030;28;20033;-59
2020/12/21 01:21:31;;;;;;;56.58;23.20;;;7.40;99.90;;;;;;5052002;28;20032;-59
2020/12/21 01:24:17;;;;;;;51.65;22.50;;;7.40;99.90;;;;;;5051941;28;20025;-59
2020/12/21 01:27:03;;;;;;;52.45;21.15;;;7.40;99.90;;;;;;5051303;28;20043;-59
2020/12/21 01:29:49;;;;;;;50.75;22.00;;;7.40;99.90;;;;;;5050550;28;20044;-59
2020/12/21 01:32:35;;;;;;;49.78;20.42;;;7.20;99.90;;;;;;5050654;28;20151;-59
2020/12/21 01:35:21;;;;;;;53.50;21.45;;;7.20;99.90;;;;;;5050571;28;20544;-59
2020/12/21 01:38:07;;;;;;;52.42;22.55;;;7.10;99.90;;;;;;5052902;28;20098;-60
2020/12/21 01:40:53;;;;;;;55.95;22.15;;;7.00;99.90;;;;;;5036734;28;20195;-60
2020/12/21 01:43:40;;;;;;;57.97;22.27;;;6.90;99.90;;;;;;5051731;28;20021;-59
2020/12/21 01:46:27;;;;;;;51.22;22.13;;;6.80;99.90;;;;;;5037540;28;20036;-60
2020/12/21 01:49:13;;;;;;;58.95;22.25;;;6.80;99.90;;;;;;5050840;28;20056;-58
2020/12/21 01:51:59;;;;;;;50.83;22.10;;;6.80;99.90;;;;;;5051206;28;20398;-60
2020/12/21 01:54:49;;;;;;;50.75;21.77;;;6.70;99.90;;;;;;5052784;28;20548;-59
2020/12/21 01:57:35;;;;;;;47.75;20.58;;;6.70;99.90;;;;;;5053130;28;20505;-60
2020/12/21 02:00:22;;;;;;;49.10;19.42;;;6.70;99.90;;;;;;5052312;28;20098;-59
2020/12/21 02:03:08;;;;;;;48.67;19.73;;;6.80;99.90;;;;;;5051241;28;20116;-59
2020/12/21 02:05:55;;;;;;;47.22;19.83;;;6.70;99.90;;;;;;5052241;28;20037;-60
2020/12/21 02:08:41;;;;;;;50.60;19.23;;;6.70;99.90;;;;;;5052023;28;20041;-60
2020/12/21 02:11:27;;;;;;;42.15;18.55;;;6.80;99.90;;;;;;5050960;28;20040;-59
2020/12/21 02:14:13;;;;;;;49.80;19.45;;;6.70;99.90;;;;;;5051211;28;20033;-59
2020/12/21 02:16:59;;;;;;;44.95;18.58;;;6.70;99.90;;;;;;5051232;28;20122;-60
2020/12/21 02:19:45;;;;;;;41.70;18.38;;;6.80;99.90;;;;;;5051355;28;20033;-59
2020/12/21 02:22:31;;;;;;;41.83;18.52;;;6.70;99.90;;;;;;5051767;28;20029;-59
2020/12/21 02:25:17;;;;;;;46.28;19.73;;;6.60;99.90;;;;;;5052189;28;20095;-60
2020/12/21 02:28:03;;;;;;;41.92;19.17;;;6.60;99.90;;;;;;5050541;28;20445;-59
2020/12/21 02:30:49;;;;;;;43.03;19.50;;;6.60;99.90;;;;;;5050129;28;20045;-59
2020/12/21 02:33:35;;;;;;;45.30;19.30;;;6.50;99.90;;;;;;5050665;28;20108;-60
2020/12/21 02:36:21;;;;;;;41.10;18.80;;;6.50;99.90;;;;;;5051089;28;20154;-60
2020/12/21 02:39:07;;;;;;;44.67;18.10;;;6.40;99.90;;;;;;5036856;28;20084;-60
2020/12/21 02:41:53;;;;;;;42.25;18.10;;;6.50;99.90;;;;;;5052191;28;20171;-59
2020/12/21 02:44:39;;;;;;;44.35;19.30;;;6.50;99.90;;;;;;5051658;28;20056;-60
2020/12/21 02:47:26;;;;;;;37.83;17.65;;;6.40;99.90;;;;;;5051038;28;20513;-60
2020/12/21 02:50:12;;;;;;;41.08;17.42;;;6.40;99.90;;;;;;5051782;28;20510;-59
2020/12/21 02:52:58;;;;;;;37.67;17.17;;;6.30;99.90;;;;;;5051175;28;20056;-59
2020/12/21 02:55:44;;;;;;;40.17;17.27;;;6.40;99.90;;;;;;5050575;28;20052;-59
2020/12/21 02:58:31;;;;;;;42.33;19.17;;;6.20;99.90;;;;;;5051564;28;20186;-59
2020/12/21 03:01:17;;;;;;;46.03;17.92;;;6.20;99.90;;;;;;5035882;28;20382;-60
2020/12/21 03:04:03;;;;;;;42.38;18.30;;;6.20;99.90;;;;;;5051322;28;20390;-59
2020/12/21 03:06:49;;;;;;;40.22;18.55;;;6.20;99.90;;;;;;5050040;28;20067;-60
2020/12/21 03:09:35;;;;;;;38.47;17.10;;;6.20;99.90;;;;;;5051269;28;20123;-60
2020/12/21 03:12:21;;;;;;;44.78;16.52;;;6.20;99.90;;;;;;5052036;28;20036;-59
2020/12/21 03:15:07;;;;;;;35.53;15.15;;;6.10;99.90;;;;;;5054707;28;20062;-60
2020/12/21 03:17:53;;;;;;;68.97;15.10;;;6.10;99.90;;;;;;5053783;28;20036;-60
2020/12/21 03:20:39;;;;;;;31.00;13.32;;;6.00;99.90;;;;;;5040066;28;20037;-60
2020/12/21 03:23:25;;;;;;;35.25;12.63;;;6.00;99.90;;;;;;5053754;28;20056;-60
2020/12/21 03:26:12;;;;;;;49.72;15.68;;;5.90;99.90;;;;;;5054732;28;20044;-60
2020/12/21 03:28:58;;;;;;;32.28;15.63;;;5.90;99.90;;;;;;5040444;28;20041;-60
2020/12/21 03:31:44;;;;;;;32.70;15.88;;;5.90;99.90;;;;;;5039988;28;20037;-60
2020/12/21 03:34:30;;;;;;;38.40;16.80;;;5.90;99.90;;;;;;5054646;28;20029;-60
2020/12/21 03:37:16;;;;;;;39.92;18.23;;;5.80;99.90;;;;;;5055225;28;20033;-59
2020/12/21 03:40:07;;;;;;;43.70;19.60;;;5.80;99.90;;;;;;5053771;28;20077;-59
2020/12/21 03:42:53;;;;;;;45.65;20.55;;;5.80;99.90;;;;;;5052539;28;20393;-59
2020/12/21 03:45:39;;;;;;;50.30;20.13;;;5.80;99.90;;;;;;5053666;28;20060;-60
2020/12/21 03:48:25;;;;;;;50.03;21.02;;;5.80;99.90;;;;;;5054036;28;20052;-60
2020/12/21 03:51:11;;;;;;;48.50;20.90;;;5.80;99.90;;;;;;5053545;28;20033;-60
2020/12/21 03:53:57;;;;;;;46.60;20.17;;;5.80;99.90;;;;;;5053017;28;20443;-60
2020/12/21 03:56:44;;;;;;;45.13;19.55;;;5.90;99.90;;;;;;5054101;28;20462;-60
2020/12/21 03:59:30;;;;;;;41.97;18.83;;;5.90;99.90;;;;;;5053433;28;20044;-60
2020/12/21 04:02:16;;;;;;;41.33;19.10;;;5.90;99.90;;;;;;5054074;28;20041;-60
2020/12/21 04:05:05;;;;;;;47.72;22.10;;;5.90;99.90;;;;;;5053199;28;20516;-60
2020/12/21 04:07:51;;;;;;;48.00;20.48;;;5.90;99.90;;;;;;5039705;28;20041;-60
2020/12/21 04:10:38;;;;;;;48.88;21.63;;;5.90;99.90;;;;;;5053057;28;20041;-59
2020/12/21 04:13:24;;;;;;;48.90;20.25;;;5.90;99.90;;;;;;5050954;28;20048;-60
2020/12/21 04:16:10;;;;;;;47.58;21.73;;;5.90;99.90;;;;;;5025110;28;20119;-60
2020/12/21 04:18:56;;;;;;;49.53;21.02;;;5.90;99.90;;;;;;5052610;28;20098;-60
2020/12/21 04:21:42;;;;;;;50.65;21.90;;;5.90;99.90;;;;;;5052577;28;20040;-60
2020/12/21 04:24:28;;;;;;;51.00;21.92;;;5.90;99.90;;;;;;5053208;28;20026;-59
2020/12/21 04:27:14;;;;;;;53.28;22.90;;;6.00;99.90;;;;;;5053079;28;20077;-59
2020/12/21 04:30:01;;;;;;;48.65;22.13;;;6.00;99.90;;;;;;5053069;28;20041;-59
2020/12/21 04:32:47;;;;;;;54.42;23.23;;;5.90;99.90;;;;;;5052843;28;20378;-59
2020/12/21 04:35:33;;;;;;;56.10;23.55;;;5.90;99.90;;;;;;5052396;28;20533;-59
2020/12/21 04:38:19;;;;;;;53.85;22.73;;;5.90;99.90;;;;;;5053364;28;20417;-60
2020/12/21 04:41:05;;;;;;;57.08;22.92;;;5.90;99.90;;;;;;5052697;28;20115;-60
2020/12/21 04:43:54;;;;;;;54.72;23.33;;;5.90;99.90;;;;;;5037784;28;20025;-60
2020/12/21 04:46:40;;;;;;;63.03;23.23;;;5.90;99.90;;;;;;5038762;28;20021;-59
2020/12/21 04:49:26;;;;;;;54.70;24.77;;;5.90;99.90;;;;;;5053536;28;20064;-59
2020/12/21 04:52:13;;;;;;;57.05;23.25;;;5.90;99.90;;;;;;5051736;28;20573;-60
2020/12/21 04:54:59;;;;;;;63.65;24.55;;;5.90;99.90;;;;;;5052548;28;20033;-60
2020/12/21 04:57:59;;;;;;;63.45;24.20;;;5.90;99.90;;;;;;5051947;28;20167;-60
2020/12/21 05:00:45;;;;;;;55.85;23.25;;;5.90;99.90;;;;;;5037780;28;20044;-60
2020/12/21 05:03:31;;;;;;;51.83;24.33;;;5.90;99.90;;;;;;5053312;28;20132;-60
2020/12/21 05:06:17;;;;;;;55.65;25.17;;;5.90;99.90;;;;;;5052140;28;20036;-60
2020/12/21 05:09:06;;;;;;;51.25;21.08;;;5.90;99.90;;;;;;5052221;28;20066;-60
2020/12/21 05:12:03;;;;;;;55.03;21.77;;;6.00;99.90;;;;;;5051175;28;20494;-60
2020/12/21 05:14:49;;;;;;;45.15;22.10;;;6.00;99.90;;;;;;5051170;28;20029;-60
2020/12/21 05:17:35;;;;;;;41.63;21.48;;;6.20;99.90;;;;;;5052093;28;20041;-60
2020/12/21 05:20:22;;;;;;;42.53;19.40;;;6.30;99.90;;;;;;5052116;28;20029;-61
2020/12/21 05:23:17;;;;;;;41.75;18.98;;;6.40;99.90;;;;;;5052008;28;20041;-59
2020/12/21 05:26:11;;;;;;;37.00;17.83;;;6.40;99.90;;;;;;5051593;28;20448;-60
2020/12/21 05:28:58;;;;;;;36.03;18.02;;;6.40;99.90;;;;;;5051850;28;20037;-59
2020/12/21 05:31:49;;;;;;;36.10;18.15;;;6.40;99.90;;;;;;5050067;28;20037;-59
2020/12/21 05:34:35;;;;;;;36.53;17.90;;;6.20;99.90;;;;;;5051161;28;20075;-59
2020/12/21 05:37:27;;;;;;;35.55;18.73;;;6.10;99.90;;;;;;5051683;28;20037;-60
2020/12/21 05:40:13;;;;;;;36.15;18.30;;;6.10;99.90;;;;;;5051760;28;20037;-59
2020/12/21 05:42:59;;;;;;;35.72;17.27;;;6.20;99.90;;;;;;5051815;28;20448;-59
2020/12/21 05:45:45;;;;;;;32.33;16.10;;;6.20;99.90;;;;;;5036753;28;20394;-60
2020/12/21 05:48:44;;;;;;;43.03;17.73;;;6.20;99.90;;;;;;5036536;28;20084;-60
2020/12/21 05:51:38;;;;;;;35.65;17.23;;;6.30;99.90;;;;;;5053071;28;20052;-60
2020/12/21 05:54:24;;;;;;;39.25;18.50;;;6.20;99.90;;;;;;5051568;28;20036;-63
2020/12/21 05:57:10;;;;;;;38.17;17.80;;;6.10;99.90;;;;;;5037041;28;20041;-60
2020/12/21 05:59:58;;;;;;;41.38;19.17;;;6.20;99.90;;;;;;5049738;28;20041;-60
2020/12/21 06:02:45;;;;;;;39.33;19.75;;;6.10;99.90;;;;;;5050472;28;20033;-60
2020/12/21 06:05:35;;;;;;;39.63;18.40;;;6.10;99.90;;;;;;5035512;28;20477;-59
2020/12/21 06:08:21;;;;;;;40.53;20.30;;;6.10;99.90;;;;;;5017454;28;20044;-60
2020/12/21 06:11:20;;;;;;;41.80;20.13;;;6.10;99.90;;;;;;5016528;28;20117;-59
2020/12/21 06:14:14;;;;;;;41.85;19.27;;;6.00;99.90;;;;;;5017756;28;20037;-60
2020/12/21 06:17:00;;;;;;;40.63;19.88;;;6.00;99.90;;;;;;5031485;28;20037;-61
2020/12/21 06:19:46;;;;;;;49.15;20.48;;;6.00;99.90;;;;;;5017602;28;20049;-60
2020/12/21 06:22:34;;;;;;;48.10;20.67;;;6.00;99.90;;;;;;5029902;28;20041;-59
2020/12/21 06:25:22;;;;;;;46.53;20.95;;;6.10;99.90;;;;;;5030558;28;20040;-58
2020/12/21 06:28:08;;;;;;;44.65;20.48;;;6.10;99.90;;;;;;5030664;28;20037;-58
2020/12/21 06:30:54;;;;;;;46.63;21.23;;;6.10;99.90;;;;;;5049656;28;20037;-58
2020/12/21 06:33:41;;;;;;;46.45;21.48;;;6.10;99.90;;;;;;5051104;28;20029;-58
2020/12/21 06:36:32;;;;;;;46.47;21.40;;;6.10;99.90;;;;;;5050933;28;20033;-59
2020/12/21 06:39:23;;;;;;;44.35;20.73;;;6.20;99.90;;;;;;5051657;28;20033;-57
2020/12/21 06:42:24;;;;;;;47.97;21.45;;;6.10;99.90;;;;;;5051008;28;20045;-59
2020/12/21 06:45:12;;;;;;;41.55;19.50;;;6.20;99.90;;;;;;5051382;28;20124;-60
2020/12/21 06:47:58;;;;;;;44.03;20.73;;;6.20;99.90;;;;;;5052672;28;20041;-61
2020/12/21 06:50:44;;;;;;;42.28;19.70;;;6.30;99.90;;;;;;5053792;28;20083;-59
2020/12/21 06:53:30;;;;;;;42.08;18.25;;;6.20;99.90;;;;;;5054551;28;20069;-59
2020/12/21 06:56:17;;;;;;;37.92;19.60;;;6.30;99.90;;;;;;5055756;28;20036;-59
2020/12/21 06:59:11;;;;;;;37.42;18.77;;;6.30;99.90;;;;;;5055032;28;20398;-58
2020/12/21 07:01:58;;;;;;;30.10;16.45;;;6.40;99.90;;;;;;5055614;28;20033;-59
2020/12/21 07:04:44;;;;;;;29.42;16.60;;;6.40;99.90;;;;;;5055484;28;20123;-64
2020/12/21 07:07:30;;;;;;;31.50;15.80;;;6.50;99.90;;;;;;5053655;28;20095;-60
2020/12/21 07:10:16;;;;;;;30.98;15.65;;;6.60;99.90;;;;;;5052877;28;20084;-59
2020/12/21 07:13:02;;;;;;;30.33;15.43;;;6.70;99.90;;;;;;5054326;28;20033;-58
2020/12/21 07:15:48;;;;;;;29.77;16.42;;;6.80;99.90;;;;;;5038953;28;20076;-60
2020/12/21 07:18:34;;;;;;;35.58;16.67;;;6.80;99.90;;;;;;5054256;28;20029;-59
2020/12/21 07:21:20;;;;;;;27.40;15.07;;;6.70;99.90;;;;;;5054576;28;20051;-59
2020/12/21 07:24:09;;;;;;;31.25;16.35;;;6.70;99.90;;;;;;5054399;28;20099;-58
2020/12/21 07:26:55;;;;;;;33.67;16.80;;;6.80;99.90;;;;;;5052687;28;20059;-59
2020/12/21 07:29:41;;;;;;;38.15;15.95;;;6.80;99.90;;;;;;5053830;28;20044;-59
2020/12/21 07:32:27;;;;;;;28.50;15.32;;;6.80;99.90;;;;;;5051461;28;20116;-59
2020/12/21 07:35:13;;;;;;;33.08;16.85;;;6.80;99.90;;;;;;5053990;28;20033;-60
2020/12/21 07:38:13;;;;;;;30.25;14.98;;;6.70;99.90;;;;;;5054281;28;20044;-60
2020/12/21 07:40:59;;;;;;;30.08;16.48;;;6.80;99.90;;;;;;5054012;28;20490;-60
2020/12/21 07:44:00;;;;;;;27.95;15.73;;;6.70;99.90;;;;;;5054332;28;20033;-59
2020/12/21 07:47:03;;;;;;;30.52;16.00;;;6.70;99.90;;;;;;5038574;28;20124;-58
2020/12/21 07:49:49;;;;;;;27.15;15.85;;;6.70;99.90;;;;;;5053101;28;20575;-60
2020/12/21 07:52:35;;;;;;;29.77;15.13;;;6.70;99.90;;;;;;5039316;28;20040;-60
2020/12/21 07:55:21;;;;;;;28.05;14.18;;;6.70;99.90;;;;;;5037803;28;20085;-58
2020/12/21 07:58:15;;;;;;;29.08;13.60;;;6.90;99.90;;;;;;5053318;28;20029;-57
2020/12/21 08:01:02;;;;;;;27.10;13.52;;;7.10;99.90;;;;;;5052352;28;20029;-57
2020/12/21 08:03:52;;;;;;;24.70;13.88;;;7.20;99.90;;;;;;5053623;28;20545;-59
2020/12/21 08:06:39;;;;;;;24.80;14.45;;;7.30;99.90;;;;;;5053484;28;20120;-60
2020/12/21 08:09:28;;;;;;;27.10;13.98;;;7.10;99.90;;;;;;5052008;28;20508;-59
2020/12/21 08:12:16;;;;;;;24.70;13.50;;;7.00;99.90;;;;;;5053397;28;20059;-60
2020/12/21 08:15:03;;;;;;;22.48;13.18;;;7.20;99.90;;;;;;5037641;28;20033;-57
2020/12/21 08:17:50;;;;;;;23.33;13.52;;;7.30;99.90;;;;;;5053591;28;20037;-58
2020/12/21 08:20:36;;;;;;;22.05;12.30;;;7.30;99.90;;;;;;5038707;28;20041;-59
2020/12/21 08:23:28;;;;;;;27.10;13.13;;;7.30;99.90;;;;;;5038205;28;20040;-59
2020/12/21 08:26:14;;;;;;;24.95;13.75;;;7.30;99.90;;;;;;5038040;28;20040;-60
2020/12/21 08:29:00;;;;;;;26.17;14.13;;;7.40;99.90;;;;;;5052909;28;20147;-59
2020/12/21 08:31:46;;;;;;;32.05;15.55;;;7.40;99.90;;;;;;5037892;28;20037;-57
2020/12/21 08:34:32;;;;;;;28.52;14.57;;;7.40;99.90;;;;;;5051575;28;20116;-61
2020/12/21 08:37:24;;;;;;;24.52;12.70;;;7.40;99.90;;;;;;5051736;28;20040;-61
2020/12/21 08:40:15;;;;;;;23.90;12.82;;;7.40;99.90;;;;;;5038616;28;20036;-58
2020/12/21 08:43:02;;;;;;;30.47;15.33;;;7.50;99.90;;;;;;5048478;28;20037;-58
2020/12/21 08:45:49;;;;;;;30.35;14.57;;;7.60;99.90;;;;;;5026593;28;20276;-60
2020/12/21 08:48:44;;;;;;;32.90;14.45;;;7.60;99.90;;;;;;5032256;28;20172;-58
2020/12/21 08:51:30;;;;;;;28.67;14.48;;;7.40;99.90;;;;;;5032633;28;20406;-60
2020/12/21 08:54:17;;;;;;;56.42;27.45;;;7.50;99.90;;;;;;5032365;28;20509;-60
2020/12/21 08:57:03;;;;;;;33.10;15.88;;;7.50;99.90;;;;;;5049575;28;20069;-60
2020/12/21 08:59:49;;;;;;;27.45;14.13;;;7.50;99.90;;;;;;5050043;28;20036;-59
2020/12/21 09:02:35;;;;;;;29.98;14.75;;;7.50;99.90;;;;;;5051737;28;20033;-59
2020/12/21 09:05:21;;;;;;;25.40;14.88;;;7.50;99.90;;;;;;5052309;28;20452;-59
2020/12/21 09:08:07;;;;;;;30.20;14.20;;;7.40;99.90;;;;;;5052587;28;20490;-59
2020/12/21 09:10:53;;;;;;;26.10;13.82;;;7.20;99.90;;;;;;5051952;28;20434;-59
2020/12/21 09:13:41;;;;;;;23.13;13.40;;;7.20;99.90;;;;;;5052545;28;20040;-60
2020/12/21 09:16:29;;;;;;;27.10;12.52;;;7.20;99.90;;;;;;5051934;28;20049;-59
2020/12/21 09:19:16;;;;;;;23.50;13.77;;;7.20;99.90;;;;;;5051482;28;20084;-58
2020/12/21 09:22:02;;;;;;;24.70;13.20;;;7.30;99.90;;;;;;5053174;28;20037;-58
2020/12/21 09:24:49;;;;;;;25.35;13.93;;;7.40;99.90;;;;;;5050540;28;20041;-60
2020/12/21 09:27:36;;;;;;;23.63;12.48;;;7.50;99.90;;;;;;5051275;28;20473;-57
2020/12/21 09:30:22;;;;;;;22.42;12.45;;;7.70;99.90;;;;;;5051731;28;20029;-59
2020/12/21 09:33:08;;;;;;;21.60;12.00;;;7.70;99.90;;;;;;5052087;28;20068;-58
2020/12/21 09:35:54;;;;;;;21.90;11.18;;;7.80;99.90;;;;;;5051782;28;20037;-58
2020/12/21 09:38:40;;;;;;;20.88;11.07;;;7.90;99.90;;;;;;5051655;28;20086;-58
2020/12/21 09:41:26;;;;;;;18.52;10.75;;;7.90;99.90;;;;;;5050819;28;20509;-59
2020/12/21 09:44:12;;;;;;;23.90;10.95;;;7.90;99.90;;;;;;5036058;28;20143;-58
2020/12/21 09:46:58;;;;;;;20.35;9.90;;;7.90;99.90;;;;;;5050823;28;20048;-59
2020/12/21 09:49:45;;;;;;;17.35;9.50;;;7.90;99.90;;;;;;5052154;28;20211;-59
2020/12/21 09:52:31;;;;;;;20.48;10.50;;;7.80;99.90;;;;;;5030956;28;20038;-59
2020/12/21 09:55:17;;;;;;;18.92;9.85;;;7.90;99.90;;;;;;5031143;28;20055;-57
2020/12/21 09:58:03;;;;;;;18.30;10.60;;;7.90;99.90;;;;;;5032015;28;20127;-59
2020/12/21 10:00:49;;;;;;;20.85;10.95;;;7.90;99.90;;;;;;5048674;28;20029;-59
2020/12/21 10:03:41;;;;;;;18.60;9.27;;;7.90;99.90;;;;;;5031934;28;20033;-58
2020/12/21 10:06:27;;;;;;;15.80;8.52;;;7.90;99.90;;;;;;5015837;28;20037;-58
2020/12/21 10:09:13;;;;;;;19.15;9.50;;;7.90;99.90;;;;;;5029775;28;20069;-59
2020/12/21 10:11:59;;;;;;;21.45;9.73;;;8.00;99.90;;;;;;5016030;28;20497;-57
2020/12/21 10:14:45;;;;;;;15.85;9.02;;;8.00;99.90;;;;;;5030153;28;20548;-58
2020/12/21 10:17:31;;;;;;;21.38;9.80;;;8.10;99.90;;;;;;5028879;28;20474;-59
2020/12/21 10:20:17;;;;;;;16.90;9.40;;;8.10;99.90;;;;;;5031198;28;20120;-59
2020/12/21 10:23:04;;;;;;;14.80;8.65;;;8.00;99.90;;;;;;5034654;28;20124;-60
2020/12/21 10:25:50;;;;;;;21.77;10.18;;;8.10;99.90;;;;;;5034620;28;20120;-59
2020/12/21 10:28:36;;;;;;;17.30;8.75;;;8.10;99.90;;;;;;5035210;28;20512;-59
2020/12/21 10:31:22;;;;;;;18.05;8.00;;;8.20;99.90;;;;;;5035690;28;20041;-60
2020/12/21 10:34:08;;;;;;;14.38;7.63;;;8.20;99.90;;;;;;5035209;28;20120;-61
2020/12/21 10:36:54;;;;;;;17.38;8.25;;;8.30;99.90;;;;;;5035216;28;20042;-60
2020/12/21 10:39:40;;;;;;;13.57;6.93;;;8.20;99.90;;;;;;5034495;28;20501;-60
2020/12/21 10:42:26;;;;;;;11.57;6.07;;;8.40;99.90;;;;;;5035286;28;20034;-60
2020/12/21 10:45:12;;;;;;;14.40;6.18;;;8.40;99.90;;;;;;5035539;28;20124;-59
2020/12/21 10:47:58;;;;;;;11.10;6.25;;;8.40;99.90;;;;;;5035443;28;20041;-58
2020/12/21 10:50:46;;;;;;;12.82;6.20;;;8.30;99.90;;;;;;5035356;28;20072;-60
2020/12/21 10:53:32;;;;;;;9.43;5.05;;;8.50;99.90;;;;;;5034217;28;20034;-58
2020/12/21 10:56:18;;;;;;;12.38;5.68;;;8.60;99.90;;;;;;5034280;28;20041;-59
2020/12/21 10:59:04;;;;;;;11.90;5.80;;;8.60;99.90;;;;;;5037382;28;20060;-59
2020/12/21 11:01:50;;;;;;;8.63;4.97;;;8.80;99.90;;;;;;5054861;28;20044;-59
2020/12/21 11:04:36;;;;;;;9.55;5.35;;;8.80;99.90;;;;;;5053969;28;20394;-59
2020/12/21 11:07:22;;;;;;;8.90;4.90;;;8.80;99.90;;;;;;5054376;28;20044;-59
2020/12/21 11:10:09;;;;;;;8.13;4.10;;;8.90;99.90;;;;;;5054189;28;20485;-59
2020/12/21 11:12:57;;;;;;;7.85;4.57;;;8.90;99.90;;;;;;5053450;28;20033;-60
2020/12/21 11:15:43;;;;;;;8.95;4.47;;;8.90;99.90;;;;;;5053997;28;20493;-60
2020/12/21 11:18:29;;;;;;;7.47;4.30;;;8.90;99.90;;;;;;5054685;28;20025;-59
2020/12/21 11:21:16;;;;;;;10.05;4.55;;;9.00;99.90;;;;;;5056000;28;20556;-60
2020/12/21 11:24:03;;;;;;;7.70;4.32;;;8.90;99.90;;;;;;5054115;28;20033;-58
2020/12/21 11:26:52;;;;;;;8.02;3.95;;;9.00;99.90;;;;;;5053348;28;20035;-59
2020/12/21 11:29:38;;;;;;;7.00;4.10;;;9.20;99.90;;;;;;5054878;28;20405;-59
2020/12/21 11:32:24;;;;;;;12.15;4.18;;;9.10;99.90;;;;;;5053359;28;20113;-58
2020/12/21 11:35:10;;;;;;;7.22;4.18;;;9.10;99.90;;;;;;5053992;28;20085;-59
2020/12/21 11:37:56;;;;;;;9.50;4.53;;;9.10;99.90;;;;;;5052652;28;20896;-60
2020/12/21 11:40:43;;;;;;;9.40;4.43;;;9.20;99.90;;;;;;5052549;28;20108;-58
2020/12/21 11:43:29;;;;;;;11.18;5.38;;;9.30;99.90;;;;;;5039644;28;20029;-56
2020/12/21 11:46:15;;;;;;;7.93;4.70;;;9.20;99.90;;;;;;5054334;28;20041;-60
2020/12/21 11:49:02;;;;;;;14.10;5.43;;;9.30;99.90;;;;;;5052750;28;20056;-60
2020/12/21 11:51:48;;;;;;;10.25;4.63;;;9.30;99.90;;;;;;5052446;28;20029;-61
2020/12/21 11:54:35;;;;;;;10.98;4.93;;;9.40;99.90;;;;;;5053689;28;20120;-57
2020/12/21 11:57:21;;;;;;;10.60;4.93;;;9.40;99.90;;;;;;5054418;28;20072;-59
2020/12/21 12:00:07;;;;;;;10.25;4.95;;;9.50;99.90;;;;;;5053201;28;20048;-60
2020/12/21 12:02:53;;;;;;;9.70;4.18;;;9.50;99.90;;;;;;5052959;28;20460;-58
2020/12/21 12:05:39;;;;;;;9.68;4.72;;;9.50;99.90;;;;;;5053372;28;20523;-58
2020/12/21 12:08:25;;;;;;;8.95;4.82;;;9.50;99.90;;;;;;5054308;28;20079;-58
2020/12/21 12:11:13;;;;;;;7.78;4.20;;;9.50;99.90;;;;;;5053376;28;20465;-59
2020/12/21 12:13:59;;;;;;;9.57;4.30;;;9.50;99.90;;;;;;5032954;28;20116;-59
2020/12/21 12:16:45;;;;;;;6.95;4.13;;;9.50;99.90;;;;;;5031345;28;20191;-59
2020/12/21 12:19:31;;;;;;;6.85;3.85;;;9.60;99.90;;;;;;5032575;28;20130;-58
2020/12/21 12:22:17;;;;;;;9.38;4.30;;;9.60;99.90;;;;;;5033478;28;20030;-58
2020/12/21 12:25:04;;;;;;;10.80;4.72;;;9.40;99.90;;;;;;5033837;28;20065;-57
2020/12/21 12:27:50;;;;;;;8.27;3.78;;;9.30;99.90;;;;;;5033600;28;20045;-58
2020/12/21 12:30:36;;;;;;;10.15;5.47;;;9.10;99.90;;;;;;5047665;28;20040;-60
2020/12/21 12:33:22;;;;;;;6.43;4.38;;;9.10;99.90;;;;;;5053083;28;20383;-59
2020/12/21 12:36:08;;;;;;;10.68;4.93;;;9.00;99.90;;;;;;5052284;28;20497;-59
2020/12/21 12:38:55;;;;;;;10.45;5.13;;;9.00;99.90;;;;;;5052187;28;20033;-58
2020/12/21 12:41:41;;;;;;;11.88;5.75;;;9.10;99.90;;;;;;5052671;28;20500;-58
2020/12/21 12:44:28;;;;;;;13.38;5.70;;;9.10;99.90;;;;;;5050699;28;20120;-59
2020/12/21 12:47:14;;;;;;;10.48;5.80;;;9.00;99.90;;;;;;5051890;28;20363;-58
2020/12/21 12:50:00;;;;;;;8.82;5.32;;;9.00;99.90;;;;;;5051750;28;20605;-60
2020/12/21 12:52:46;;;;;;;10.32;4.53;;;8.90;99.90;;;;;;5052768;28;20510;-59
2020/12/21 12:55:33;;;;;;;7.97;4.38;;;9.00;99.90;;;;;;5052605;28;20068;-59
2020/12/21 12:58:19;;;;;;;8.82;4.07;;;8.90;99.90;;;;;;5051131;28;20041;-59
2020/12/21 13:01:06;;;;;;;7.90;4.43;;;8.80;99.90;;;;;;5032023;28;20041;-60
2020/12/21 13:03:52;;;;;;;7.00;4.00;;;8.80;99.90;;;;;;5031074;28;20486;-57
2020/12/21 13:06:38;;;;;;;7.70;4.63;;;8.80;99.90;;;;;;5030990;28;20048;-60
2020/12/21 13:09:24;;;;;;;11.27;5.40;;;8.80;99.90;;;;;;5031438;28;20413;-58
2020/12/21 13:12:10;;;;;;;11.95;5.53;;;8.80;99.90;;;;;;5031156;28;20033;-59
2020/12/21 13:14:56;;;;;;;9.85;4.93;;;8.90;99.90;;;;;;5030854;28;20045;-60
2020/12/21 13:17:42;;;;;;;10.48;4.85;;;8.90;99.90;;;;;;5031425;28;20037;-60
2020/12/21 13:20:28;;;;;;;7.72;4.82;;;9.00;99.90;;;;;;5030586;28;20509;-60
2020/12/21 13:23:15;;;;;;;10.20;4.70;;;9.00;99.90;;;;;;5032413;28;20037;-60
2020/12/21 13:26:01;;;;;;;11.07;5.03;;;9.00;99.90;;;;;;5031179;28;20053;-58
2020/12/21 13:28:48;;;;;;;10.98;4.60;;;9.00;99.90;;;;;;5031985;28;20041;-59
2020/12/21 13:31:34;;;;;;;7.80;4.45;;;9.00;99.90;;;;;;5037406;28;20037;-59
2020/12/21 13:34:20;;;;;;;8.20;4.50;;;9.10;99.90;;;;;;5052630;28;20474;-60
2020/12/21 13:37:06;;;;;;;8.15;4.68;;;9.20;99.90;;;;;;5052316;28;20041;-58
2020/12/21 13:39:52;;;;;;;8.00;4.90;;;9.10;99.90;;;;;;5049695;28;20052;-58
2020/12/21 13:42:39;;;;;;;10.80;4.85;;;9.20;99.90;;;;;;5052070;28;20037;-58
2020/12/21 13:45:25;;;;;;;6.32;3.92;;;9.20;99.90;;;;;;5052019;28;20037;-57
2020/12/21 13:48:11;;;;;;;10.80;4.20;;;9.30;99.90;;;;;;5051547;28;20044;-58
2020/12/21 13:50:57;;;;;;;9.27;4.15;;;9.50;99.90;;;;;;5052950;28;20045;-58
2020/12/21 13:53:43;;;;;;;10.65;4.75;;;9.60;99.90;;;;;;5052372;28;20044;-58
2020/12/21 13:56:29;;;;;;;9.50;4.05;;;9.70;99.90;;;;;;5050516;28;20037;-58
2020/12/21 13:59:15;;;;;;;7.90;4.68;;;9.60;99.90;;;;;;5051891;28;20048;-59
2020/12/21 14:02:03;;;;;;;8.02;3.72;;;9.70;99.90;;;;;;5050979;28;20477;-59
2020/12/21 14:04:49;;;;;;;23.80;11.38;;;9.70;99.90;;;;;;5050187;28;20513;-59
2020/12/21 14:07:35;;;;;;;13.32;5.18;;;9.50;99.90;;;;;;5049700;28;20083;-57
2020/12/21 14:10:21;;;;;;;10.93;4.45;;;9.30;99.90;;;;;;5050722;28;20605;-58
2020/12/21 14:13:11;;;;;;;10.73;4.13;;;9.30;99.90;;;;;;5051935;28;20513;-59
2020/12/21 14:15:57;;;;;;;8.57;4.22;;;9.20;99.90;;;;;;5050331;28;20060;-58
2020/12/21 14:18:49;;;;;;;11.48;4.10;;;9.10;99.90;;;;;;5050249;28;20051;-60
2020/12/21 14:21:37;;;;;;;7.85;3.85;;;9.10;99.90;;;;;;5051731;28;20462;-59